createdAt,value
2023-02-14T00:00:48.612Z,101760.50
2023-02-14T00:03:27.872Z,101764.90
2023-02-14T00:06:00.353Z,101772.25
2023-02-14T00:08:29.682Z,101772.41
2023-02-14T00:11:02.127Z,101771.80
2023-02-14T00:13:31.763Z,101772.10
2023-02-14T00:16:05.691Z,101771.60
2023-02-14T00:18:54.622Z,101770.17
2023-02-14T00:21:27.811Z,101762.71
2023-02-14T00:24:00.185Z,101762.92
2023-02-14T00:26:29.421Z,101759.70
2023-02-14T00:28:58.796Z,101761.59
2023-02-14T00:31:31.218Z,101766.44
2023-02-14T00:34:06.693Z,101762.76
2023-02-14T00:36:35.596Z,101769.20
2023-02-14T00:39:08.848Z,101767.14
2023-02-14T00:41:40.892Z,101769.61
2023-02-14T00:44:15.130Z,101767.61
2023-02-14T00:46:46.964Z,101773.70
2023-02-14T00:49:18.181Z,101773.27
2023-02-14T00:52:37.104Z,101784.96
2023-02-14T00:55:08.389Z,101794.68
2023-02-14T00:57:39.585Z,101795.31
2023-02-14T01:00:12.768Z,101793.20
2023-02-14T01:02:42.882Z,101789.75
2023-02-14T01:05:12.922Z,101789.39
2023-02-14T01:07:42.361Z,101791.81
2023-02-14T01:10:14.160Z,101794.38
2023-02-14T01:12:44.717Z,101792.92
2023-02-14T01:15:17.274Z,101797.27
2023-02-14T01:17:47.564Z,101791.62
2023-02-14T01:20:19.026Z,101790.56
2023-02-14T01:22:48.066Z,101789.42
2023-02-14T01:25:19.722Z,101792.36
2023-02-14T01:27:48.900Z,101800.71
2023-02-14T01:30:22.005Z,101797.39
2023-02-14T01:32:50.701Z,101796.12
2023-02-14T01:35:20.138Z,101804.40
2023-02-14T01:37:51.484Z,101809.63
2023-02-14T01:40:25.839Z,101813.04
2023-02-14T01:42:55.252Z,101811.23
2023-02-14T01:45:27.138Z,101811.80
2023-02-14T01:47:57.438Z,101809.08
2023-02-14T01:50:31.154Z,101809.89
2023-02-14T01:53:04.144Z,101802.52
2023-02-14T01:55:35.167Z,101794.81
2023-02-14T01:58:11.186Z,101799.96
2023-02-14T02:00:57.917Z,101804.36
2023-02-14T02:03:35.036Z,101800.77
2023-02-14T02:06:26.934Z,101792.60
2023-02-14T02:09:05.519Z,101796.64
2023-02-14T02:11:36.070Z,101801.64
2023-02-14T02:14:06.957Z,101799.52
2023-02-14T02:16:54.674Z,101800.78
2023-02-14T02:19:34.461Z,101806.59
2023-02-14T02:22:26.237Z,101807.68
2023-02-14T02:24:57.572Z,101811.16
2023-02-14T02:27:27.696Z,101812.38
2023-02-14T02:30:26.120Z,101817.61
2023-02-14T02:33:16.267Z,101816.42
2023-02-14T02:36:09.392Z,101806.81
2023-02-14T02:39:11.891Z,101807.20
2023-02-14T02:42:01.388Z,101808.14
2023-02-14T02:54:01.542Z,101809.98
2023-02-14T03:13:07.167Z,101819.31
2023-02-14T03:16:08.526Z,101816.65
2023-02-14T03:18:59.383Z,101821.36
2023-02-14T03:21:52.017Z,101820.70
2023-02-14T03:24:39.523Z,101821.45
2023-02-14T03:27:21.930Z,101820.80
2023-02-14T03:30:17.205Z,101821.35
2023-02-14T03:32:51.093Z,101822.45
2023-02-14T03:35:34.188Z,101823.20
2023-02-14T03:38:15.971Z,101831.47
2023-02-14T03:40:55.133Z,101832.30
2023-02-14T03:43:37.216Z,101827.08
2023-02-14T03:46:10.770Z,101830.35
2023-02-14T03:48:42.564Z,101838.29
2023-02-14T03:51:14.044Z,101841.73
2023-02-14T03:57:58.997Z,101830.98
2023-02-14T04:00:29.686Z,101845.83
2023-02-14T04:03:05.136Z,101838.84
2023-02-14T04:05:38.334Z,101838.12
2023-02-14T04:08:11.094Z,101839.63
2023-02-14T04:10:42.661Z,101842.41
2023-02-14T04:13:13.293Z,101842.77
2023-02-14T04:15:44.795Z,101837.93
2023-02-14T04:18:34.197Z,101825.77
2023-02-14T04:21:06.480Z,101827.89
2023-02-14T04:23:37.322Z,101831.39
2023-02-14T04:26:10.335Z,101830.77
2023-02-14T04:28:40.309Z,101834.19
2023-02-14T04:31:11.846Z,101843.13
2023-02-14T04:33:40.900Z,101838.74
2023-02-14T04:36:10.752Z,101840.48
2023-02-14T04:38:41.580Z,101843.45
2023-02-14T04:41:12.833Z,101846.14
2023-02-14T04:43:42.242Z,101838.23
2023-02-14T04:46:11.775Z,101835.07
2023-02-14T04:48:43.919Z,101838.06
2023-02-14T04:51:13.023Z,101850.27
2023-02-14T04:53:45.818Z,101853.31
2023-02-14T04:56:18.157Z,101850.02
2023-02-14T04:58:47.771Z,101847.45
2023-02-14T05:01:18.818Z,101850.99
2023-02-14T05:03:51.475Z,101854.41
2023-02-14T05:06:23.150Z,101863.54
2023-02-14T05:08:53.046Z,101860.07
2023-02-14T05:11:23.318Z,101854.94
2023-02-14T05:13:54.837Z,101852.12
2023-02-14T05:16:27.165Z,101852.23
2023-02-14T05:18:57.739Z,101864.20
2023-02-14T05:21:28.426Z,101866.62
2023-02-14T05:23:59.527Z,101864.73
2023-02-14T05:26:29.062Z,101867.22
2023-02-14T05:29:00.510Z,101861.58
2023-02-14T05:31:31.249Z,101864.39
2023-02-14T05:34:01.145Z,101865.21
2023-02-14T05:36:31.788Z,101872.67
2023-02-14T05:39:02.664Z,101866.24
2023-02-14T05:41:33.898Z,101856.56
2023-02-14T05:44:04.427Z,101865.80
2023-02-14T05:46:35.815Z,101878.73
2023-02-14T05:49:04.696Z,101881.09
2023-02-14T05:51:38.249Z,101885.44
2023-02-14T05:54:10.870Z,101886.02
2023-02-14T05:56:43.091Z,101882.63
2023-02-14T05:59:14.661Z,101893.34
2023-02-14T06:01:45.515Z,101900.24
2023-02-14T06:04:14.588Z,101902.55
2023-02-14T06:06:44.108Z,101891.08
2023-02-14T06:09:16.016Z,101893.87
2023-02-14T06:11:45.699Z,101906.17
2023-02-14T06:14:14.968Z,101913.42
2023-02-14T06:16:46.498Z,101910.67
2023-02-14T06:19:16.969Z,101905.04
2023-02-14T06:21:47.529Z,101912.38
2023-02-14T06:24:16.927Z,101911.33
2023-02-14T06:26:46.469Z,101911.41
2023-02-14T06:29:18.564Z,101909.77
2023-02-14T06:31:47.791Z,101910.44
2023-02-14T06:34:18.231Z,101922.02
2023-02-14T06:36:56.591Z,101920.50
2023-02-14T06:39:29.197Z,101917.05
2023-02-14T06:41:59.873Z,101922.02
2023-02-14T06:44:29.662Z,101933.52
2023-02-14T06:46:59.153Z,101929.93
2023-02-14T06:49:29.762Z,101922.84
2023-02-14T06:52:02.087Z,101926.37
2023-02-14T06:54:32.332Z,101933.61
2023-02-14T06:57:01.499Z,101931.54
2023-02-14T06:59:30.183Z,101930.63
2023-02-14T07:02:01.597Z,101936.42
2023-02-14T07:04:31.404Z,101942.20
2023-02-14T07:07:05.641Z,101945.06
2023-02-14T07:09:34.697Z,101944.09
2023-02-14T07:12:07.248Z,101950.62
2023-02-14T07:14:39.441Z,101961.80
2023-02-14T07:17:44.280Z,101967.33
2023-02-14T07:20:08.610Z,101967.84
2023-02-14T07:22:39.981Z,101969.36
2023-02-14T07:25:12.584Z,101975.48
2023-02-14T07:27:44.221Z,101977.17
2023-02-14T07:30:14.330Z,101983.45
2023-02-14T07:32:45.154Z,101984.41
2023-02-14T07:35:15.297Z,101990.85
2023-02-14T07:37:44.257Z,101991.52
2023-02-14T07:40:15.510Z,101985.04
2023-02-14T07:42:45.852Z,101984.21
2023-02-14T07:45:22.037Z,101990.58
2023-02-14T07:47:54.806Z,101987.93
2023-02-14T07:50:26.525Z,101996.11
2023-02-14T07:52:57.270Z,101993.55
2023-02-14T07:55:28.650Z,101981.20
2023-02-14T07:57:59.499Z,101982.84
2023-02-14T08:00:29.716Z,101990.01
2023-02-14T08:02:59.970Z,101993.39
2023-02-14T08:05:31.086Z,101985.91
2023-02-14T08:07:59.951Z,101987.38
2023-02-14T08:10:28.912Z,101992.82
2023-02-14T08:12:59.319Z,102003.55
2023-02-14T08:15:51.607Z,102007.10
2023-02-14T08:18:23.377Z,102009.09
2023-02-14T08:20:52.392Z,102008.73
2023-02-14T08:23:23.051Z,102008.65
2023-02-14T08:25:53.219Z,102007.73
2023-02-14T08:28:24.270Z,102008.59
2023-02-14T08:30:55.435Z,102008.16
2023-02-14T08:33:26.945Z,102006.36
2023-02-14T08:35:56.956Z,102002.64
2023-02-14T08:38:25.888Z,102006.05
2023-02-14T08:41:03.794Z,102002.78
2023-02-14T08:43:36.534Z,102007.36
2023-02-14T08:46:08.595Z,102014.93
2023-02-14T08:48:39.422Z,101998.10
2023-02-14T08:51:09.322Z,101992.86
2023-02-14T08:53:40.254Z,102000.01
2023-02-14T08:56:11.034Z,102005.20
2023-02-14T08:58:40.992Z,101999.14
2023-02-14T09:01:11.105Z,101996.91
2023-02-14T09:03:40.432Z,101995.41
2023-02-14T09:06:11.375Z,101999.02
2023-02-14T09:08:41.778Z,102002.77
2023-02-14T09:11:12.179Z,102004.23
2023-02-14T09:13:41.910Z,102005.68
2023-02-14T09:16:12.578Z,102007.12
2023-02-14T09:18:41.726Z,102004.98
2023-02-14T09:21:14.031Z,101995.36
2023-02-14T09:23:42.973Z,102000.06
2023-02-14T09:26:12.741Z,101999.02
2023-02-14T09:28:41.756Z,102001.58
2023-02-14T09:31:13.001Z,101997.36
2023-02-14T09:34:00.909Z,101998.54
2023-02-14T09:36:48.997Z,102000.11
2023-02-14T09:39:19.372Z,102004.90
2023-02-14T09:42:10.426Z,102012.15
2023-02-14T09:44:47.253Z,102012.11
2023-02-14T09:47:33.033Z,102008.20
2023-02-14T09:50:07.449Z,102013.13
2023-02-14T09:52:38.690Z,102012.88
2023-02-14T09:55:13.725Z,102007.41
2023-02-14T09:57:51.203Z,102012.92
2023-02-14T10:00:28.271Z,102017.55
2023-02-14T10:03:12.958Z,102010.20
2023-02-14T10:05:55.551Z,102009.05
2023-02-14T10:08:35.842Z,102010.05
2023-02-14T10:11:08.634Z,102013.36
2023-02-14T10:13:47.433Z,102012.67
2023-02-14T10:16:20.906Z,102009.52
2023-02-14T10:18:55.506Z,102009.93
2023-02-14T10:21:33.800Z,102012.17
2023-02-14T10:24:12.092Z,102008.16
2023-02-14T10:26:46.009Z,102000.89
2023-02-14T10:29:20.833Z,102001.48
2023-02-14T10:31:57.750Z,102003.06
2023-02-14T10:34:58.412Z,102003.52
2023-02-14T10:37:30.780Z,102000.61
2023-02-14T10:40:03.471Z,102006.77
2023-02-14T10:42:44.236Z,102005.30
2023-02-14T10:45:25.926Z,102006.42
2023-02-14T10:47:56.022Z,102004.16
2023-02-14T10:50:28.500Z,101995.33
2023-02-14T10:53:05.118Z,101998.23
2023-02-14T10:55:48.699Z,102000.74
2023-02-14T10:58:20.172Z,101997.88
2023-02-14T11:00:54.928Z,101996.08
2023-02-14T11:03:27.105Z,101994.11
2023-02-14T11:05:56.993Z,101994.17
2023-02-14T11:08:29.606Z,101992.48
2023-02-14T11:11:08.127Z,101996.11
2023-02-14T11:13:40.064Z,101995.29
2023-02-14T11:16:10.998Z,101992.90
2023-02-14T11:18:41.767Z,101994.39
2023-02-14T11:21:13.566Z,101993.73
2023-02-14T11:23:48.133Z,101992.64
2023-02-14T11:26:22.841Z,101990.85
2023-02-14T11:29:01.454Z,101988.55
2023-02-14T11:31:34.375Z,101982.70
2023-02-14T11:34:05.238Z,101979.18
2023-02-14T11:36:40.750Z,101979.83
2023-02-14T11:39:40.709Z,101970.06
2023-02-14T11:42:14.147Z,101967.67
2023-02-14T11:44:56.593Z,101962.59
2023-02-14T11:47:29.127Z,101966.02
2023-02-14T11:50:01.493Z,101964.89
2023-02-14T11:52:59.524Z,101958.05
2023-02-14T11:55:34.041Z,101962.29
2023-02-14T11:58:05.902Z,101954.94
2023-02-14T12:00:35.591Z,101949.81
2023-02-14T12:03:07.651Z,101946.97
2023-02-14T12:05:49.321Z,101944.05
2023-02-14T12:08:25.355Z,101940.74
2023-02-14T12:11:18.500Z,101933.63
2023-02-14T12:13:54.277Z,101938.81
2023-02-14T12:16:28.285Z,101938.80
2023-02-14T12:18:59.755Z,101936.48
2023-02-14T12:21:51.948Z,101937.96
2023-02-14T12:24:43.363Z,101939.08
2023-02-14T12:27:12.977Z,101935.54
2023-02-14T12:29:46.066Z,101933.60
2023-02-14T12:32:30.489Z,101929.59
2023-02-14T12:35:18.214Z,101928.72
2023-02-14T12:37:50.809Z,101926.19
2023-02-14T12:40:36.921Z,101931.30
2023-02-14T12:43:25.750Z,101932.25
2023-02-14T12:45:57.263Z,101932.19
2023-02-14T12:48:30.918Z,101922.17
2023-02-14T12:51:00.158Z,101922.05
2023-02-14T12:53:43.040Z,101916.89
2023-02-14T12:56:25.868Z,101916.79
2023-02-14T12:59:10.828Z,101921.30
2023-02-14T13:01:43.487Z,101922.41
2023-02-14T13:04:15.024Z,101916.96
2023-02-14T13:07:08.452Z,101916.27
2023-02-14T13:09:50.563Z,101920.66
2023-02-14T13:12:37.268Z,101918.17
2023-02-14T13:15:10.879Z,101913.36
2023-02-14T13:17:59.059Z,101920.70
2023-02-14T13:20:52.593Z,101921.67
2023-02-14T13:23:38.406Z,101914.81
2023-02-14T13:26:32.520Z,101924.00
2023-02-14T13:29:06.930Z,101921.42
2023-02-14T13:31:38.081Z,101924.37
2023-02-14T13:34:07.429Z,101929.64
2023-02-14T13:36:38.358Z,101923.61
2023-02-14T13:39:08.669Z,101913.57
2023-02-14T13:41:42.166Z,101920.56
2023-02-14T13:44:12.815Z,101920.66
2023-02-14T13:46:44.693Z,101912.90
2023-02-14T13:49:26.096Z,101914.41
2023-02-14T13:52:21.880Z,101914.09
2023-02-14T13:54:51.600Z,101917.61
2023-02-14T13:57:37.285Z,101916.34
2023-02-14T14:00:20.228Z,101912.51
2023-02-14T14:02:57.859Z,101915.28
2023-02-14T14:05:31.448Z,101910.56
2023-02-14T14:08:20.723Z,101912.57
2023-02-14T14:10:56.161Z,101911.88
2023-02-14T14:13:46.724Z,101905.32
2023-02-14T14:16:28.241Z,101911.56
2023-02-14T14:19:03.017Z,101912.19
2023-02-14T14:21:33.544Z,101910.41
2023-02-14T14:24:04.490Z,101914.48
2023-02-14T14:26:42.855Z,101915.98
2023-02-14T14:29:28.309Z,101914.15
2023-02-14T14:31:58.173Z,101911.35
2023-02-14T14:34:30.617Z,101914.00
2023-02-14T14:37:05.185Z,101915.46
2023-02-14T14:39:36.774Z,101921.67
2023-02-14T14:42:10.563Z,101920.86
2023-02-14T14:44:45.914Z,101917.29
2023-02-14T14:47:20.680Z,101916.80
2023-02-14T14:49:50.304Z,101911.05
2023-02-14T14:52:31.012Z,101913.23
2023-02-14T14:55:01.417Z,101914.80
2023-02-14T14:57:30.960Z,101915.66
2023-02-14T15:00:18.565Z,101914.05
2023-02-14T15:03:08.558Z,101916.54
2023-02-14T15:05:45.848Z,101917.36
2023-02-14T15:08:22.801Z,101918.54
2023-02-14T15:10:52.900Z,101919.79
2023-02-14T15:13:58.195Z,101919.22
2023-02-14T15:16:37.467Z,101924.00
2023-02-14T15:19:17.065Z,101927.20
2023-02-14T15:22:13.364Z,101924.58
2023-02-14T15:24:59.017Z,101924.36
2023-02-14T15:27:40.032Z,101924.63
2023-02-14T15:30:19.833Z,101924.83
2023-02-14T15:32:55.518Z,101922.70
2023-02-14T15:35:35.372Z,101925.98
2023-02-14T15:38:16.629Z,101929.13
2023-02-14T15:41:08.324Z,101927.73
2023-02-14T15:44:05.288Z,101932.75
2023-02-14T15:46:49.569Z,101933.89
2023-02-14T15:49:51.151Z,101939.80
2023-02-14T15:52:50.752Z,101934.67
2023-02-14T15:55:23.844Z,101934.77
2023-02-14T15:58:03.660Z,101933.45
2023-02-14T16:00:33.408Z,101938.51
2023-02-14T16:03:11.674Z,101940.33
2023-02-14T16:05:48.162Z,101942.73
2023-02-14T16:08:33.392Z,101943.73
2023-02-14T16:11:08.188Z,101944.05
2023-02-14T16:13:43.917Z,101941.33
2023-02-14T16:16:16.803Z,101949.14
2023-02-14T16:18:58.981Z,101952.45
2023-02-14T16:21:31.761Z,101954.63
2023-02-14T16:24:07.108Z,101957.30
2023-02-14T16:26:43.821Z,101960.39
2023-02-14T16:29:16.650Z,101956.37
2023-02-14T16:32:15.582Z,101956.27
2023-02-14T16:34:41.872Z,101958.75
2023-02-14T16:37:26.091Z,101959.33
2023-02-14T16:40:01.594Z,101960.80
2023-02-14T16:42:33.668Z,101963.21
2023-02-14T16:45:07.280Z,101969.29
2023-02-14T16:50:23.197Z,101973.84
2023-02-14T16:52:53.919Z,101975.40
2023-02-14T16:55:28.110Z,101971.73
2023-02-14T16:57:59.925Z,101973.98
2023-02-14T17:00:30.920Z,101976.12
2023-02-14T17:03:07.753Z,101980.34
2023-02-14T17:05:40.826Z,101980.23
2023-02-14T17:08:16.395Z,101983.02
2023-02-14T17:13:59.611Z,101980.77
2023-02-14T17:16:33.793Z,101978.83
2023-02-14T17:19:05.838Z,101985.15
2023-02-14T17:21:39.780Z,101984.56
2023-02-14T17:24:10.601Z,101985.94
2023-02-14T17:26:48.970Z,101984.30
2023-02-14T17:29:20.874Z,101981.58
2023-02-14T17:31:56.353Z,101975.58
2023-02-14T17:34:30.280Z,101978.22
2023-02-14T17:37:03.955Z,101976.00
2023-02-14T17:39:41.050Z,101971.30
2023-02-14T17:42:12.836Z,101973.46
2023-02-14T17:44:47.676Z,101977.50
2023-02-14T17:47:25.146Z,101975.55
2023-02-14T17:50:02.263Z,101972.01
2023-02-14T17:53:02.589Z,101967.18
2023-02-14T17:55:35.496Z,101970.44
2023-02-14T17:58:16.142Z,101969.02
2023-02-14T18:00:47.756Z,101970.38
2023-02-14T18:03:20.010Z,101970.85
2023-02-14T18:05:54.002Z,101968.30
2023-02-14T18:08:25.004Z,101969.25
2023-02-14T18:10:59.051Z,101967.48
2023-02-14T18:13:37.232Z,101970.23
2023-02-14T18:16:10.555Z,101973.17
2023-02-14T18:18:42.340Z,101971.38
2023-02-14T18:21:24.752Z,101972.27
2023-02-14T18:24:03.184Z,101972.23
2023-02-14T18:26:38.958Z,101971.65
2023-02-14T18:29:13.381Z,101970.52
2023-02-14T18:31:45.952Z,101971.82
2023-02-14T18:34:40.447Z,101973.92
2023-02-14T18:37:16.169Z,101972.30
2023-02-14T18:39:48.470Z,101980.20
2023-02-14T18:42:20.145Z,101979.73
2023-02-14T18:44:54.532Z,101978.93
2023-02-14T18:47:25.897Z,101978.14
2023-02-14T18:49:58.794Z,101977.77
2023-02-14T18:52:29.183Z,101973.48
2023-02-14T18:55:00.777Z,101969.63
2023-02-14T18:57:34.531Z,101969.66
2023-02-14T19:00:08.741Z,101974.04
2023-02-14T19:02:42.795Z,101975.15
2023-02-14T19:05:13.692Z,101973.83
2023-02-14T19:07:46.774Z,101970.27
2023-02-14T19:10:21.166Z,101970.26
2023-02-14T19:12:55.426Z,101968.02
2023-02-14T19:15:33.082Z,101963.98
2023-02-14T19:18:05.339Z,101956.96
2023-02-14T19:20:41.917Z,101958.31
2023-02-14T19:23:13.920Z,101954.51
2023-02-14T19:25:48.299Z,101949.99
2023-02-14T19:28:20.690Z,101956.14
2023-02-14T19:30:56.341Z,101955.36
2023-02-14T19:33:27.232Z,101961.27
2023-02-14T19:36:03.836Z,101959.66
2023-02-14T19:38:37.346Z,101958.10
2023-02-14T19:41:17.789Z,101960.88
2023-02-14T19:43:52.820Z,101963.20
2023-02-14T19:46:27.471Z,101960.63
2023-02-14T19:49:05.431Z,101959.35
2023-02-14T19:51:41.057Z,101958.46
2023-02-14T19:57:59.070Z,101960.52
2023-02-14T20:00:32.885Z,101959.74
2023-02-14T20:03:07.270Z,101957.30
2023-02-14T20:05:52.400Z,101954.15
2023-02-14T20:08:30.114Z,101953.90
2023-02-14T20:11:03.247Z,101952.18
2023-02-14T20:13:37.197Z,101952.34
2023-02-14T20:17:07.964Z,101954.60
2023-02-14T20:19:47.250Z,101955.99
2023-02-14T20:22:24.237Z,101955.17
2023-02-14T20:25:00.285Z,101957.93
2023-02-14T20:27:39.014Z,101960.69
2023-02-14T20:30:16.597Z,101960.41
2023-02-14T20:32:49.580Z,101968.77
2023-02-14T20:35:24.163Z,101968.80
2023-02-14T20:38:03.240Z,101967.54
2023-02-14T20:40:44.630Z,101966.77
2023-02-14T20:43:20.111Z,101963.23
2023-02-14T20:45:54.577Z,101960.17
2023-02-14T20:48:32.862Z,101953.84
2023-02-14T20:51:13.809Z,101956.21
2023-02-14T20:53:45.654Z,101960.05
2023-02-14T20:56:25.859Z,101960.31
2023-02-14T20:58:59.755Z,101958.70
2023-02-14T21:01:35.256Z,101959.17
2023-02-14T21:04:11.485Z,101956.30
2023-02-14T21:06:44.022Z,101954.36
2023-02-14T21:09:21.638Z,101956.19
2023-02-14T21:11:55.310Z,101952.67
2023-02-14T21:14:30.903Z,101952.40
2023-02-14T21:17:07.114Z,101955.56
2023-02-14T21:19:48.476Z,101955.64
2023-02-14T21:22:25.310Z,101952.10
2023-02-14T21:25:00.950Z,101951.66
2023-02-14T21:27:34.677Z,101958.20
2023-02-14T21:30:09.468Z,101956.34
2023-02-14T21:32:42.301Z,101957.10
2023-02-14T21:35:12.944Z,101960.04
2023-02-14T21:37:48.516Z,101962.64
2023-02-14T21:40:24.799Z,101964.14
2023-02-14T21:43:02.584Z,101960.16
2023-02-14T21:45:55.242Z,101963.14
2023-02-14T21:48:46.621Z,101960.58
2023-02-14T21:51:21.670Z,101962.06
2023-02-14T21:54:06.593Z,101958.41
2023-02-14T21:56:46.669Z,101956.38
2023-02-14T21:59:20.478Z,101961.95
2023-02-14T22:01:51.440Z,101962.75
2023-02-14T22:04:30.823Z,101961.48
2023-02-14T22:07:05.869Z,101964.42
2023-02-14T22:09:37.096Z,101961.27
2023-02-14T22:12:12.181Z,101962.31
2023-02-14T22:14:45.791Z,101963.08
2023-02-14T22:17:16.952Z,101961.98
2023-02-14T22:19:47.964Z,101961.91
2023-02-14T22:22:18.149Z,101956.27
2023-02-14T22:24:51.306Z,101957.33
2023-02-14T22:27:22.048Z,101956.55
2023-02-14T22:29:51.522Z,101954.59
2023-02-14T22:32:25.606Z,101955.21
2023-02-14T22:34:58.573Z,101956.40
2023-02-14T22:37:30.476Z,101959.96
2023-02-14T22:40:02.438Z,101957.79
2023-02-14T22:42:34.637Z,101951.99
2023-02-14T22:45:04.200Z,101951.71
2023-02-14T22:47:35.602Z,101958.04
2023-02-14T22:50:07.509Z,101956.83
2023-02-14T22:53:03.922Z,101952.61
2023-02-14T22:55:35.233Z,101952.25
2023-02-14T22:58:11.674Z,101955.27
2023-02-14T23:00:45.941Z,101954.26
2023-02-14T23:03:17.846Z,101955.10
2023-02-14T23:05:49.573Z,101956.35
2023-02-14T23:08:21.576Z,101948.09
2023-02-14T23:10:55.289Z,101946.27
2023-02-14T23:13:56.279Z,101944.63
2023-02-14T23:16:46.250Z,101944.56
2023-02-14T23:19:36.967Z,101942.94
2023-02-14T23:22:12.809Z,101944.73
2023-02-14T23:24:43.878Z,101946.44
2023-02-14T23:27:14.395Z,101945.55
2023-02-14T23:29:46.108Z,101943.84
2023-02-14T23:32:18.784Z,101944.61
2023-02-14T23:34:49.547Z,101946.77
2023-02-14T23:37:19.226Z,101945.33
2023-02-14T23:39:50.657Z,101942.03
2023-02-14T23:42:20.798Z,101942.89
2023-02-14T23:44:54.888Z,101947.33
2023-02-14T23:47:26.788Z,101942.14
2023-02-14T23:49:57.046Z,101937.74
2023-02-14T23:52:30.554Z,101936.71
2023-02-14T23:55:07.493Z,101938.69
2023-02-14T23:57:40.720Z,101937.42
